sensor_id;sensor_type;location;lat;lon;timestamp;temperature;humidity
10042;DHT22;5061;49.068;12.058;2023-09-12T00:00:31;19.20;99.90
10042;DHT22;5061;49.068;12.058;2023-09-12T00:03:51;19.20;99.90
10042;DHT22;5061;49.068;12.058;2023-09-12T00:07:12;19.20;99.90
10042;DHT22;5061;49.068;12.058;2023-09-12T00:10:32;19.10;99.90
10042;DHT22;5061;49.068;12.058;2023-09-12T00:13:53;19.10;99.90
10042;DHT22;5061;49.068;12.058;2023-09-12T00:17:13;19.10;99.90
10042;DHT22;5061;49.068;12.058;2023-09-12T00:20:34;19.10;99.90
10042;DHT22;5061;49.068;12.058;2023-09-12T00:23:54;19.00;99.90
10042;DHT22;5061;49.068;12.058;2023-09-12T00:27:15;19.00;99.90
10042;DHT22;5061;49.068;12.058;2023-09-12T00:30:35;19.00;99.90
10042;DHT22;5061;49.068;12.058;2023-09-12T00:33:56;18.90;99.90
10042;DHT22;5061;49.068;12.058;2023-09-12T00:37:16;18.80;99.90
10042;DHT22;5061;49.068;12.058;2023-09-12T00:44:07;18.80;99.90
10042;DHT22;5061;49.068;12.058;2023-09-12T00:47:28;18.70;99.90
10042;DHT22;5061;49.068;12.058;2023-09-12T00:50:49;18.70;99.90
10042;DHT22;5061;49.068;12.058;2023-09-12T00:54:09;18.70;99.90
10042;DHT22;5061;49.068;12.058;2023-09-12T00:57:30;18.70;99.90
10042;DHT22;5061;49.068;12.058;2023-09-12T01:00:53;18.70;99.90
10042;DHT22;5061;49.068;12.058;2023-09-12T01:04:13;18.60;99.90
10042;DHT22;5061;49.068;12.058;2023-09-12T01:07:37;18.60;99.90
10042;DHT22;5061;49.068;12.058;2023-09-12T01:10:58;18.60;99.90
10042;DHT22;5061;49.068;12.058;2023-09-12T01:14:19;18.60;99.90
10042;DHT22;5061;49.068;12.058;2023-09-12T01:17:40;18.50;99.90
10042;DHT22;5061;49.068;12.058;2023-09-12T01:27:54;18.40;99.90
10042;DHT22;5061;49.068;12.058;2023-09-12T01:31:15;18.40;99.90
10042;DHT22;5061;49.068;12.058;2023-09-12T01:34:37;18.40;99.90
10042;DHT22;5061;49.068;12.058;2023-09-12T01:37:57;18.30;99.90
10042;DHT22;5061;49.068;12.058;2023-09-12T01:41:18;18.30;99.90
10042;DHT22;5061;49.068;12.058;2023-09-12T01:44:39;18.30;99.90
10042;DHT22;5061;49.068;12.058;2023-09-12T01:48:00;18.20;99.90
10042;DHT22;5061;49.068;12.058;2023-09-12T01:51:21;18.20;99.90
10042;DHT22;5061;49.068;12.058;2023-09-12T01:54:42;18.20;99.90
10042;DHT22;5061;49.068;12.058;2023-09-12T01:58:04;18.20;99.90
10042;DHT22;5061;49.068;12.058;2023-09-12T02:01:25;18.10;99.90
10042;DHT22;5061;49.068;12.058;2023-09-12T02:05:29;18.10;99.90
10042;DHT22;5061;49.068;12.058;2023-09-12T02:08:31;18.10;99.90
10042;DHT22;5061;49.068;12.058;2023-09-12T02:11:51;18.00;99.90
10042;DHT22;5061;49.068;12.058;2023-09-12T02:15:12;18.00;99.90
10042;DHT22;5061;49.068;12.058;2023-09-12T02:18:32;18.00;99.90
10042;DHT22;5061;49.068;12.058;2023-09-12T02:21:53;18.00;99.90
10042;DHT22;5061;49.068;12.058;2023-09-12T02:25:13;18.00;99.90
10042;DHT22;5061;49.068;12.058;2023-09-12T02:28:34;17.90;99.90
10042;DHT22;5061;49.068;12.058;2023-09-12T02:31:55;17.90;99.90
10042;DHT22;5061;49.068;12.058;2023-09-12T02:35:16;17.80;99.90
10042;DHT22;5061;49.068;12.058;2023-09-12T02:38:36;17.80;99.90
10042;DHT22;5061;49.068;12.058;2023-09-12T02:41:57;17.80;99.90
10042;DHT22;5061;49.068;12.058;2023-09-12T02:45:17;17.70;99.90
10042;DHT22;5061;49.068;12.058;2023-09-12T02:48:38;17.70;99.90
10042;DHT22;5061;49.068;12.058;2023-09-12T02:51:58;17.70;99.90
10042;DHT22;5061;49.068;12.058;2023-09-12T02:55:19;17.70;99.90
10042;DHT22;5061;49.068;12.058;2023-09-12T02:58:39;17.70;99.90
10042;DHT22;5061;49.068;12.058;2023-09-12T03:02:00;17.70;99.90
10042;DHT22;5061;49.068;12.058;2023-09-12T03:05:20;17.60;99.90
10042;DHT22;5061;49.068;12.058;2023-09-12T03:08:41;17.60;99.90
10042;DHT22;5061;49.068;12.058;2023-09-12T03:12:02;17.60;99.90
10042;DHT22;5061;49.068;12.058;2023-09-12T03:15:22;17.50;99.90
10042;DHT22;5061;49.068;12.058;2023-09-12T03:18:43;17.60;99.90
10042;DHT22;5061;49.068;12.058;2023-09-12T03:22:03;17.50;99.90
10042;DHT22;5061;49.068;12.058;2023-09-12T03:25:24;17.50;99.90
10042;DHT22;5061;49.068;12.058;2023-09-12T03:28:44;17.50;99.90
10042;DHT22;5061;49.068;12.058;2023-09-12T03:32:05;17.50;99.90
10042;DHT22;5061;49.068;12.058;2023-09-12T03:35:26;17.50;99.90
10042;DHT22;5061;49.068;12.058;2023-09-12T03:38:46;17.40;99.90
10042;DHT22;5061;49.068;12.058;2023-09-12T03:42:07;17.40;99.90
10042;DHT22;5061;49.068;12.058;2023-09-12T03:45:27;17.40;99.90
10042;DHT22;5061;49.068;12.058;2023-09-12T03:48:48;17.40;99.90
10042;DHT22;5061;49.068;12.058;2023-09-12T03:52:09;17.40;99.90
10042;DHT22;5061;49.068;12.058;2023-09-12T03:55:29;17.40;99.90
10042;DHT22;5061;49.068;12.058;2023-09-12T03:58:50;17.30;99.90
10042;DHT22;5061;49.068;12.058;2023-09-12T04:02:10;17.30;99.90
10042;DHT22;5061;49.068;12.058;2023-09-12T04:05:31;17.30;99.90
10042;DHT22;5061;49.068;12.058;2023-09-12T04:08:51;17.30;99.90
10042;DHT22;5061;49.068;12.058;2023-09-12T04:12:15;17.20;99.90
10042;DHT22;5061;49.068;12.058;2023-09-12T04:15:35;17.20;99.90
10042;DHT22;5061;49.068;12.058;2023-09-12T04:18:56;17.20;99.90
10042;DHT22;5061;49.068;12.058;2023-09-12T04:22:16;17.20;99.90
10042;DHT22;5061;49.068;12.058;2023-09-12T04:25:37;17.20;99.90
10042;DHT22;5061;49.068;12.058;2023-09-12T04:28:57;17.10;99.90
10042;DHT22;5061;49.068;12.058;2023-09-12T04:32:18;17.10;99.90
10042;DHT22;5061;49.068;12.058;2023-09-12T04:35:43;17.10;99.90
10042;DHT22;5061;49.068;12.058;2023-09-12T04:39:04;17.00;99.90
10042;DHT22;5061;49.068;12.058;2023-09-12T04:42:25;17.00;99.90
10042;DHT22;5061;49.068;12.058;2023-09-12T04:45:46;17.00;99.90
10042;DHT22;5061;49.068;12.058;2023-09-12T04:49:06;17.00;99.90
10042;DHT22;5061;49.068;12.058;2023-09-12T04:52:36;17.00;99.90
10042;DHT22;5061;49.068;12.058;2023-09-12T05:59:00;17.00;99.90
10042;DHT22;5061;49.068;12.058;2023-09-12T06:02:21;17.00;99.90
10042;DHT22;5061;49.068;12.058;2023-09-12T06:05:41;17.00;99.90
10042;DHT22;5061;49.068;12.058;2023-09-12T06:09:02;17.10;99.90
10042;DHT22;5061;49.068;12.058;2023-09-12T06:12:23;17.00;99.90
10042;DHT22;5061;49.068;12.058;2023-09-12T06:15:44;17.10;99.90
10042;DHT22;5061;49.068;12.058;2023-09-12T06:19:05;17.10;99.90
10042;DHT22;5061;49.068;12.058;2023-09-12T06:22:25;17.10;99.90
10042;DHT22;5061;49.068;12.058;2023-09-12T06:25:46;17.10;99.90
10042;DHT22;5061;49.068;12.058;2023-09-12T06:29:06;17.10;99.90
10042;DHT22;5061;49.068;12.058;2023-09-12T06:32:27;17.20;99.90
10042;DHT22;5061;49.068;12.058;2023-09-12T06:35:50;17.20;99.90
10042;DHT22;5061;49.068;12.058;2023-09-12T06:39:13;17.30;99.90
10042;DHT22;5061;49.068;12.058;2023-09-12T06:42:33;17.30;99.90
10042;DHT22;5061;49.068;12.058;2023-09-12T06:45:54;17.40;99.90
10042;DHT22;5061;49.068;12.058;2023-09-12T06:49:14;17.40;99.90
10042;DHT22;5061;49.068;12.058;2023-09-12T06:52:35;17.50;99.90
10042;DHT22;5061;49.068;12.058;2023-09-12T06:55:55;17.50;99.90
10042;DHT22;5061;49.068;12.058;2023-09-12T06:59:17;17.50;99.90
10042;DHT22;5061;49.068;12.058;2023-09-12T07:02:38;17.60;99.90
10042;DHT22;5061;49.068;12.058;2023-09-12T07:05:58;17.60;99.90
10042;DHT22;5061;49.068;12.058;2023-09-12T07:09:19;17.70;99.90
10042;DHT22;5061;49.068;12.058;2023-09-12T07:12:41;17.70;99.90
10042;DHT22;5061;49.068;12.058;2023-09-12T07:16:01;17.80;99.90
10042;DHT22;5061;49.068;12.058;2023-09-12T07:19:24;17.80;99.90
10042;DHT22;5061;49.068;12.058;2023-09-12T07:22:45;17.90;99.90
10042;DHT22;5061;49.068;12.058;2023-09-12T07:26:11;18.00;99.90
10042;DHT22;5061;49.068;12.058;2023-09-12T07:29:31;18.10;99.90
10042;DHT22;5061;49.068;12.058;2023-09-12T07:32:52;18.10;99.90
10042;DHT22;5061;49.068;12.058;2023-09-12T07:36:12;18.20;99.90
10042;DHT22;5061;49.068;12.058;2023-09-12T07:39:33;18.20;99.90
10042;DHT22;5061;49.068;12.058;2023-09-12T07:42:54;18.30;99.90
10042;DHT22;5061;49.068;12.058;2023-09-12T07:46:14;18.30;99.90
10042;DHT22;5061;49.068;12.058;2023-09-12T07:49:35;18.40;99.90
10042;DHT22;5061;49.068;12.058;2023-09-12T07:52:56;18.50;99.90
10042;DHT22;5061;49.068;12.058;2023-09-12T07:56:16;18.60;99.90
10042;DHT22;5061;49.068;12.058;2023-09-12T07:59:37;18.60;99.90
10042;DHT22;5061;49.068;12.058;2023-09-12T08:02:57;18.70;99.90
10042;DHT22;5061;49.068;12.058;2023-09-12T08:06:18;18.70;99.90
10042;DHT22;5061;49.068;12.058;2023-09-12T08:09:51;18.80;99.90
10042;DHT22;5061;49.068;12.058;2023-09-12T08:13:12;18.90;99.90
10042;DHT22;5061;49.068;12.058;2023-09-12T08:16:33;18.90;99.90
10042;DHT22;5061;49.068;12.058;2023-09-12T08:19:53;19.00;99.90
10042;DHT22;5061;49.068;12.058;2023-09-12T08:23:14;19.10;99.90
10042;DHT22;5061;49.068;12.058;2023-09-12T08:26:34;19.10;99.90
10042;DHT22;5061;49.068;12.058;2023-09-12T08:29:55;19.10;99.90
10042;DHT22;5061;49.068;12.058;2023-09-12T08:33:15;19.30;99.90
10042;DHT22;5061;49.068;12.058;2023-09-12T08:36:36;19.30;99.90
10042;DHT22;5061;49.068;12.058;2023-09-12T08:39:56;19.40;99.90
10042;DHT22;5061;49.068;12.058;2023-09-12T08:43:20;19.50;99.90
10042;DHT22;5061;49.068;12.058;2023-09-12T08:46:44;19.60;99.90
10042;DHT22;5061;49.068;12.058;2023-09-12T08:50:05;19.70;99.90
10042;DHT22;5061;49.068;12.058;2023-09-12T08:53:25;19.80;99.90
10042;DHT22;5061;49.068;12.058;2023-09-12T08:56:46;19.90;99.90
10042;DHT22;5061;49.068;12.058;2023-09-12T09:00:07;19.90;99.90
10042;DHT22;5061;49.068;12.058;2023-09-12T09:03:33;20.00;99.90
10042;DHT22;5061;49.068;12.058;2023-09-12T09:06:54;20.10;99.90
10042;DHT22;5061;49.068;12.058;2023-09-12T09:10:19;20.10;99.90
10042;DHT22;5061;49.068;12.058;2023-09-12T09:13:40;20.20;99.90
10042;DHT22;5061;49.068;12.058;2023-09-12T09:17:02;20.30;99.90
10042;DHT22;5061;49.068;12.058;2023-09-12T09:20:27;20.40;99.90
10042;DHT22;5061;49.068;12.058;2023-09-12T09:23:48;20.40;99.90
10042;DHT22;5061;49.068;12.058;2023-09-12T09:27:08;20.60;99.90
10042;DHT22;5061;49.068;12.058;2023-09-12T09:30:48;20.60;99.90
10042;DHT22;5061;49.068;12.058;2023-09-12T09:34:15;20.70;99.90
10042;DHT22;5061;49.068;12.058;2023-09-12T09:37:37;20.80;99.90
10042;DHT22;5061;49.068;12.058;2023-09-12T09:40:57;20.90;99.90
10042;DHT22;5061;49.068;12.058;2023-09-12T09:44:18;21.00;99.90
10042;DHT22;5061;49.068;12.058;2023-09-12T09:47:42;21.10;99.90
10042;DHT22;5061;49.068;12.058;2023-09-12T09:51:03;21.20;99.90
10042;DHT22;5061;49.068;12.058;2023-09-12T09:54:24;21.30;99.90
10042;DHT22;5061;49.068;12.058;2023-09-12T09:57:45;21.40;99.90
10042;DHT22;5061;49.068;12.058;2023-09-12T10:01:06;21.50;99.90
10042;DHT22;5061;49.068;12.058;2023-09-12T10:04:28;21.60;99.90
10042;DHT22;5061;49.068;12.058;2023-09-12T10:07:49;21.80;99.90
10042;DHT22;5061;49.068;12.058;2023-09-12T10:11:14;21.90;99.90
10042;DHT22;5061;49.068;12.058;2023-09-12T10:14:35;22.00;99.90
10042;DHT22;5061;49.068;12.058;2023-09-12T10:17:57;22.00;99.90
10042;DHT22;5061;49.068;12.058;2023-09-12T10:21:19;22.10;99.90
10042;DHT22;5061;49.068;12.058;2023-09-12T10:24:41;22.20;99.90
10042;DHT22;5061;49.068;12.058;2023-09-12T10:28:03;22.40;99.90
10042;DHT22;5061;49.068;12.058;2023-09-12T10:31:24;22.40;99.90
10042;DHT22;5061;49.068;12.058;2023-09-12T10:34:44;22.60;99.90
10042;DHT22;5061;49.068;12.058;2023-09-12T10:38:07;22.60;99.90
10042;DHT22;5061;49.068;12.058;2023-09-12T10:41:28;22.80;99.90
10042;DHT22;5061;49.068;12.058;2023-09-12T10:44:49;22.90;99.90
10042;DHT22;5061;49.068;12.058;2023-09-12T10:48:10;23.00;99.90
10042;DHT22;5061;49.068;12.058;2023-09-12T10:51:31;23.10;99.90
10042;DHT22;5061;49.068;12.058;2023-09-12T10:54:52;23.20;99.90
10042;DHT22;5061;49.068;12.058;2023-09-12T10:58:13;23.30;99.90
10042;DHT22;5061;49.068;12.058;2023-09-12T11:01:36;23.40;99.90
10042;DHT22;5061;49.068;12.058;2023-09-12T11:04:57;23.50;99.90
10042;DHT22;5061;49.068;12.058;2023-09-12T11:08:18;23.60;99.90
10042;DHT22;5061;49.068;12.058;2023-09-12T11:11:39;23.60;99.90
10042;DHT22;5061;49.068;12.058;2023-09-12T11:15:03;23.70;99.90
10042;DHT22;5061;49.068;12.058;2023-09-12T11:18:25;23.90;99.90
10042;DHT22;5061;49.068;12.058;2023-09-12T11:21:46;24.00;99.90
10042;DHT22;5061;49.068;12.058;2023-09-12T11:28:37;24.40;99.90
10042;DHT22;5061;49.068;12.058;2023-09-12T11:31:59;24.60;99.90
10042;DHT22;5061;49.068;12.058;2023-09-12T11:35:23;24.80;99.90
10042;DHT22;5061;49.068;12.058;2023-09-12T11:38:44;24.90;99.90
10042;DHT22;5061;49.068;12.058;2023-09-12T11:42:10;25.20;99.90
10042;DHT22;5061;49.068;12.058;2023-09-12T11:45:32;25.30;99.90
10042;DHT22;5061;49.068;12.058;2023-09-12T11:48:53;25.50;99.90
10042;DHT22;5061;49.068;12.058;2023-09-12T11:52:14;25.60;99.90
10042;DHT22;5061;49.068;12.058;2023-09-12T11:55:41;25.80;99.90
10042;DHT22;5061;49.068;12.058;2023-09-12T11:59:02;26.00;99.90
10042;DHT22;5061;49.068;12.058;2023-09-12T12:02:23;26.10;99.90
10042;DHT22;5061;49.068;12.058;2023-09-12T12:05:44;26.30;99.90
10042;DHT22;5061;49.068;12.058;2023-09-12T12:09:04;26.50;99.90
10042;DHT22;5061;49.068;12.058;2023-09-12T12:12:25;26.70;99.90
10042;DHT22;5061;49.068;12.058;2023-09-12T12:15:46;26.90;99.90
10042;DHT22;5061;49.068;12.058;2023-09-12T12:19:06;27.10;99.90
10042;DHT22;5061;49.068;12.058;2023-09-12T12:22:27;27.20;99.90
10042;DHT22;5061;49.068;12.058;2023-09-12T12:25:47;27.30;99.90
10042;DHT22;5061;49.068;12.058;2023-09-12T12:29:08;27.50;99.90
10042;DHT22;5061;49.068;12.058;2023-09-12T12:32:29;27.50;99.90
10042;DHT22;5061;49.068;12.058;2023-09-12T12:35:58;27.70;99.90
10042;DHT22;5061;49.068;12.058;2023-09-12T12:39:20;27.80;99.90
10042;DHT22;5061;49.068;12.058;2023-09-12T12:42:41;28.00;99.90
10042;DHT22;5061;49.068;12.058;2023-09-12T12:46:09;28.10;99.90
10042;DHT22;5061;49.068;12.058;2023-09-12T12:49:30;28.10;99.90
10042;DHT22;5061;49.068;12.058;2023-09-12T12:52:56;28.10;99.90
10042;DHT22;5061;49.068;12.058;2023-09-12T12:56:17;28.10;99.90
10042;DHT22;5061;49.068;12.058;2023-09-12T12:59:39;28.10;99.90
10042;DHT22;5061;49.068;12.058;2023-09-12T13:03:04;28.10;99.90
10042;DHT22;5061;49.068;12.058;2023-09-12T13:06:25;28.10;99.90
10042;DHT22;5061;49.068;12.058;2023-09-12T13:09:47;28.20;99.90
10042;DHT22;5061;49.068;12.058;2023-09-12T13:13:08;28.30;99.90
10042;DHT22;5061;49.068;12.058;2023-09-12T13:16:28;28.30;99.90
10042;DHT22;5061;49.068;12.058;2023-09-12T13:19:50;28.30;99.90
10042;DHT22;5061;49.068;12.058;2023-09-12T13:23:10;28.20;99.90
10042;DHT22;5061;49.068;12.058;2023-09-12T13:26:31;28.20;99.90
10042;DHT22;5061;49.068;12.058;2023-09-12T13:29:52;28.20;99.90
10042;DHT22;5061;49.068;12.058;2023-09-12T13:33:13;28.30;99.90
10042;DHT22;5061;49.068;12.058;2023-09-12T13:36:35;28.40;99.90
10042;DHT22;5061;49.068;12.058;2023-09-12T13:39:56;28.50;99.90
10042;DHT22;5061;49.068;12.058;2023-09-12T13:43:16;28.50;99.90
10042;DHT22;5061;49.068;12.058;2023-09-12T13:46:37;28.50;99.90
10042;DHT22;5061;49.068;12.058;2023-09-12T13:49:57;28.40;99.90
10042;DHT22;5061;49.068;12.058;2023-09-12T13:53:18;28.40;99.90
10042;DHT22;5061;49.068;12.058;2023-09-12T13:56:38;28.40;99.90
10042;DHT22;5061;49.068;12.058;2023-09-12T13:59:59;28.40;99.90
10042;DHT22;5061;49.068;12.058;2023-09-12T14:03:20;28.40;99.90
10042;DHT22;5061;49.068;12.058;2023-09-12T14:06:40;28.40;99.90
10042;DHT22;5061;49.068;12.058;2023-09-12T14:10:01;28.40;99.90
10042;DHT22;5061;49.068;12.058;2023-09-12T14:13:22;28.50;99.90
10042;DHT22;5061;49.068;12.058;2023-09-12T14:16:43;28.50;99.90
10042;DHT22;5061;49.068;12.058;2023-09-12T14:20:04;28.40;99.90
10042;DHT22;5061;49.068;12.058;2023-09-12T14:23:24;28.30;99.90
10042;DHT22;5061;49.068;12.058;2023-09-12T14:26:45;28.30;99.90
10042;DHT22;5061;49.068;12.058;2023-09-12T14:30:05;28.40;99.90
10042;DHT22;5061;49.068;12.058;2023-09-12T14:33:26;28.40;99.90
10042;DHT22;5061;49.068;12.058;2023-09-12T14:36:47;28.40;99.90
10042;DHT22;5061;49.068;12.058;2023-09-12T14:40:08;28.50;99.90
10042;DHT22;5061;49.068;12.058;2023-09-12T14:43:28;28.50;99.90
10042;DHT22;5061;49.068;12.058;2023-09-12T14:46:49;28.60;99.90
10042;DHT22;5061;49.068;12.058;2023-09-12T14:50:09;28.50;99.90
10042;DHT22;5061;49.068;12.058;2023-09-12T14:53:30;28.50;99.90
10042;DHT22;5061;49.068;12.058;2023-09-12T14:56:50;28.50;99.90
10042;DHT22;5061;49.068;12.058;2023-09-12T15:00:11;28.50;99.90
10042;DHT22;5061;49.068;12.058;2023-09-12T15:03:32;28.50;99.90
10042;DHT22;5061;49.068;12.058;2023-09-12T15:06:56;28.50;99.90
10042;DHT22;5061;49.068;12.058;2023-09-12T15:10:17;28.30;99.90
10042;DHT22;5061;49.068;12.058;2023-09-12T15:13:37;28.30;99.90
10042;DHT22;5061;49.068;12.058;2023-09-12T15:16:58;28.20;99.90
10042;DHT22;5061;49.068;12.058;2023-09-12T15:20:20;28.20;99.90
10042;DHT22;5061;49.068;12.058;2023-09-12T15:23:40;28.10;99.90
10042;DHT22;5061;49.068;12.058;2023-09-12T15:27:01;28.10;99.90
10042;DHT22;5061;49.068;12.058;2023-09-12T15:30:21;28.00;99.90
10042;DHT22;5061;49.068;12.058;2023-09-12T15:33:42;28.00;99.90
10042;DHT22;5061;49.068;12.058;2023-09-12T15:37:06;27.90;99.90
10042;DHT22;5061;49.068;12.058;2023-09-12T15:40:27;27.90;99.90
10042;DHT22;5061;49.068;12.058;2023-09-12T15:43:48;27.80;99.90
10042;DHT22;5061;49.068;12.058;2023-09-12T15:47:09;27.70;99.90
10042;DHT22;5061;49.068;12.058;2023-09-12T15:50:30;27.70;99.90
10042;DHT22;5061;49.068;12.058;2023-09-12T15:53:51;27.70;99.90
10042;DHT22;5061;49.068;12.058;2023-09-12T15:57:11;27.70;99.90
10042;DHT22;5061;49.068;12.058;2023-09-12T16:00:34;27.60;99.90
10042;DHT22;5061;49.068;12.058;2023-09-12T16:03:54;27.60;99.90
10042;DHT22;5061;49.068;12.058;2023-09-12T16:07:15;27.60;99.90
10042;DHT22;5061;49.068;12.058;2023-09-12T16:10:35;27.50;99.90
10042;DHT22;5061;49.068;12.058;2023-09-12T16:13:56;27.50;99.90
10042;DHT22;5061;49.068;12.058;2023-09-12T16:17:17;27.40;99.90
10042;DHT22;5061;49.068;12.058;2023-09-12T16:20:37;27.40;99.90
10042;DHT22;5061;49.068;12.058;2023-09-12T16:23:58;27.30;99.90
10042;DHT22;5061;49.068;12.058;2023-09-12T16:27:18;27.20;99.90
10042;DHT22;5061;49.068;12.058;2023-09-12T16:30:42;27.10;99.90
10042;DHT22;5061;49.068;12.058;2023-09-12T16:34:04;27.00;99.90
10042;DHT22;5061;49.068;12.058;2023-09-12T16:37:25;26.90;99.90
10042;DHT22;5061;49.068;12.058;2023-09-12T16:40:53;26.80;99.90
10042;DHT22;5061;49.068;12.058;2023-09-12T16:44:14;26.60;99.90
10042;DHT22;5061;49.068;12.058;2023-09-12T16:47:34;26.50;99.90
10042;DHT22;5061;49.068;12.058;2023-09-12T16:50:55;26.40;99.90
10042;DHT22;5061;49.068;12.058;2023-09-12T16:54:16;26.20;99.90
10042;DHT22;5061;49.068;12.058;2023-09-12T16:57:36;26.10;99.90
10042;DHT22;5061;49.068;12.058;2023-09-12T17:00:57;26.00;99.90
10042;DHT22;5061;49.068;12.058;2023-09-12T17:04:18;25.80;99.90
10042;DHT22;5061;49.068;12.058;2023-09-12T17:07:38;25.70;99.90
10042;DHT22;5061;49.068;12.058;2023-09-12T17:10:59;25.60;99.90
10042;DHT22;5061;49.068;12.058;2023-09-12T17:14:19;25.50;99.90
10042;DHT22;5061;49.068;12.058;2023-09-12T17:17:40;25.40;99.90
10042;DHT22;5061;49.068;12.058;2023-09-12T17:21:01;25.30;99.90
10042;DHT22;5061;49.068;12.058;2023-09-12T17:24:21;25.20;99.90
10042;DHT22;5061;49.068;12.058;2023-09-12T17:27:42;25.00;99.90
10042;DHT22;5061;49.068;12.058;2023-09-12T17:31:02;24.90;99.90
10042;DHT22;5061;49.068;12.058;2023-09-12T17:34:41;24.80;99.90
10042;DHT22;5061;49.068;12.058;2023-09-12T17:38:02;24.70;99.90
10042;DHT22;5061;49.068;12.058;2023-09-12T17:41:25;24.60;99.90
10042;DHT22;5061;49.068;12.058;2023-09-12T17:44:45;24.50;99.90
10042;DHT22;5061;49.068;12.058;2023-09-12T17:48:06;24.40;99.90
10042;DHT22;5061;49.068;12.058;2023-09-12T17:51:26;24.30;99.90
10042;DHT22;5061;49.068;12.058;2023-09-12T17:54:47;24.30;99.90
10042;DHT22;5061;49.068;12.058;2023-09-12T17:58:08;24.20;99.90
10042;DHT22;5061;49.068;12.058;2023-09-12T18:01:28;24.10;99.90
10042;DHT22;5061;49.068;12.058;2023-09-12T18:04:48;24.10;99.90
10042;DHT22;5061;49.068;12.058;2023-09-12T18:08:09;24.00;99.90
10042;DHT22;5061;49.068;12.058;2023-09-12T18:11:30;23.90;99.90
10042;DHT22;5061;49.068;12.058;2023-09-12T18:14:50;23.90;99.90
10042;DHT22;5061;49.068;12.058;2023-09-12T18:18:13;23.80;99.90
10042;DHT22;5061;49.068;12.058;2023-09-12T18:21:33;23.80;99.90
10042;DHT22;5061;49.068;12.058;2023-09-12T18:24:58;23.70;99.90
10042;DHT22;5061;49.068;12.058;2023-09-12T18:28:40;23.70;99.90
10042;DHT22;5061;49.068;12.058;2023-09-12T18:32:01;23.70;99.90
10042;DHT22;5061;49.068;12.058;2023-09-12T18:35:21;23.60;99.90
10042;DHT22;5061;49.068;12.058;2023-09-12T18:38:43;23.60;99.90
10042;DHT22;5061;49.068;12.058;2023-09-12T18:42:03;23.50;99.90
10042;DHT22;5061;49.068;12.058;2023-09-12T18:45:24;23.50;99.90
10042;DHT22;5061;49.068;12.058;2023-09-12T18:48:45;23.40;99.90
10042;DHT22;5061;49.068;12.058;2023-09-12T18:52:05;23.40;99.90
10042;DHT22;5061;49.068;12.058;2023-09-12T18:55:26;23.30;99.90
10042;DHT22;5061;49.068;12.058;2023-09-12T18:58:46;23.30;99.90
10042;DHT22;5061;49.068;12.058;2023-09-12T19:02:07;23.20;99.90
10042;DHT22;5061;49.068;12.058;2023-09-12T19:05:27;23.20;99.90
10042;DHT22;5061;49.068;12.058;2023-09-12T19:08:48;23.20;99.90
10042;DHT22;5061;49.068;12.058;2023-09-12T19:12:08;23.10;99.90
10042;DHT22;5061;49.068;12.058;2023-09-12T19:15:29;23.10;99.90
10042;DHT22;5061;49.068;12.058;2023-09-12T19:18:49;23.10;99.90
10042;DHT22;5061;49.068;12.058;2023-09-12T19:22:10;23.00;99.90
10042;DHT22;5061;49.068;12.058;2023-09-12T19:25:31;22.90;99.90
10042;DHT22;5061;49.068;12.058;2023-09-12T19:28:51;22.90;99.90
10042;DHT22;5061;49.068;12.058;2023-09-12T19:32:12;22.90;99.90
10042;DHT22;5061;49.068;12.058;2023-09-12T19:35:33;22.80;99.90
10042;DHT22;5061;49.068;12.058;2023-09-12T19:39:00;22.80;99.90
10042;DHT22;5061;49.068;12.058;2023-09-12T19:42:21;22.70;99.90
10042;DHT22;5061;49.068;12.058;2023-09-12T19:45:42;22.70;99.90
10042;DHT22;5061;49.068;12.058;2023-09-12T19:49:03;22.70;99.90
10042;DHT22;5061;49.068;12.058;2023-09-12T19:52:23;22.70;99.90
10042;DHT22;5061;49.068;12.058;2023-09-12T19:55:51;22.70;99.90
10042;DHT22;5061;49.068;12.058;2023-09-12T19:59:14;22.70;99.90
10042;DHT22;5061;49.068;12.058;2023-09-12T20:02:38;22.60;99.90
10042;DHT22;5061;49.068;12.058;2023-09-12T20:05:59;22.60;99.90
10042;DHT22;5061;49.068;12.058;2023-09-12T20:09:21;22.60;99.90
10042;DHT22;5061;49.068;12.058;2023-09-12T20:12:41;22.60;99.90
10042;DHT22;5061;49.068;12.058;2023-09-12T20:16:02;22.60;99.90
10042;DHT22;5061;49.068;12.058;2023-09-12T20:19:26;22.60;99.90
10042;DHT22;5061;49.068;12.058;2023-09-12T20:22:49;22.60;99.90
10042;DHT22;5061;49.068;12.058;2023-09-12T20:26:10;22.50;99.90
10042;DHT22;5061;49.068;12.058;2023-09-12T20:29:36;22.50;99.90
10042;DHT22;5061;49.068;12.058;2023-09-12T20:33:02;22.40;99.90
10042;DHT22;5061;49.068;12.058;2023-09-12T20:36:28;22.40;99.90
10042;DHT22;5061;49.068;12.058;2023-09-12T20:39:52;22.40;99.90
10042;DHT22;5061;49.068;12.058;2023-09-12T20:43:19;22.40;99.90
10042;DHT22;5061;49.068;12.058;2023-09-12T20:46:39;22.40;99.90
10042;DHT22;5061;49.068;12.058;2023-09-12T20:49:59;22.30;99.90
10042;DHT22;5061;49.068;12.058;2023-09-12T20:53:23;22.20;99.90
10042;DHT22;5061;49.068;12.058;2023-09-12T20:56:46;22.20;99.90
10042;DHT22;5061;49.068;12.058;2023-09-12T21:00:09;22.10;99.90
10042;DHT22;5061;49.068;12.058;2023-09-12T21:03:30;22.00;99.90
10042;DHT22;5061;49.068;12.058;2023-09-12T21:06:50;22.00;99.90
10042;DHT22;5061;49.068;12.058;2023-09-12T21:10:11;21.90;99.90
10042;DHT22;5061;49.068;12.058;2023-09-12T21:13:31;21.80;99.90
10042;DHT22;5061;49.068;12.058;2023-09-12T21:16:52;21.70;99.90
10042;DHT22;5061;49.068;12.058;2023-09-12T21:20:12;21.70;99.90
10042;DHT22;5061;49.068;12.058;2023-09-12T21:23:33;21.70;99.90
10042;DHT22;5061;49.068;12.058;2023-09-12T21:26:53;21.60;99.90
10042;DHT22;5061;49.068;12.058;2023-09-12T21:30:14;21.60;99.90
10042;DHT22;5061;49.068;12.058;2023-09-12T21:33:34;21.50;99.90
10042;DHT22;5061;49.068;12.058;2023-09-12T21:36:55;21.50;99.90
10042;DHT22;5061;49.068;12.058;2023-09-12T21:40:15;21.50;99.90
10042;DHT22;5061;49.068;12.058;2023-09-12T21:43:36;21.50;99.90
10042;DHT22;5061;49.068;12.058;2023-09-12T21:46:56;21.40;99.90
10042;DHT22;5061;49.068;12.058;2023-09-12T21:50:17;21.40;99.90
10042;DHT22;5061;49.068;12.058;2023-09-12T21:53:46;21.40;99.90
10042;DHT22;5061;49.068;12.058;2023-09-12T21:57:09;21.30;99.90
10042;DHT22;5061;49.068;12.058;2023-09-12T22:00:30;21.30;99.90
10042;DHT22;5061;49.068;12.058;2023-09-12T22:03:51;21.30;99.90
10042;DHT22;5061;49.068;12.058;2023-09-12T22:07:12;21.20;99.90
10042;DHT22;5061;49.068;12.058;2023-09-12T22:10:36;21.20;99.90
10042;DHT22;5061;49.068;12.058;2023-09-12T22:13:57;21.20;99.90
10042;DHT22;5061;49.068;12.058;2023-09-12T22:17:17;21.20;99.90
10042;DHT22;5061;49.068;12.058;2023-09-12T22:20:37;21.20;99.90
10042;DHT22;5061;49.068;12.058;2023-09-12T22:23:58;21.10;99.90
10042;DHT22;5061;49.068;12.058;2023-09-12T22:27:19;21.10;99.90